Terminal Aerodrome Forecast
Issued by NWS

Home | Current Version | Previous Version | Text Only | Print | Product List | Glossary On
Versions: 1 2 3 4 5 6 7 8 9 10 11 12 13 14 15
000
FTUS43 KBIS 282226 AAB
TAFDIK
TAF AMD
KDIK 282226Z 2822/2918 32005KT 6SM FU SCT250
     FM290200 28006KT 6SM FU SCT250
      TEMPO 2902/2906 3SM FU SCT030=

USA.gov is the U.S. government's official web portal to all federal, state and local government web resources and services.